sensor_id;sensor_type;location;lat;lon;timestamp;P1;durP1;ratioP1;P2;durP2;ratioP2
20671;SDS011;10495;50.922;4.760;2023-03-31T00:00:28;10.43;;;3.33;;
20671;SDS011;10495;50.922;4.760;2023-03-31T00:02:55;7.10;;;2.70;;
20671;SDS011;10495;50.922;4.760;2023-03-31T00:05:22;10.50;;;2.73;;
20671;SDS011;10495;50.922;4.760;2023-03-31T00:07:52;10.63;;;2.37;;
20671;SDS011;10495;50.922;4.760;2023-03-31T00:10:19;9.13;;;2.80;;
20671;SDS011;10495;50.922;4.760;2023-03-31T00:12:45;11.90;;;2.47;;
20671;SDS011;10495;50.922;4.760;2023-03-31T00:15:10;9.53;;;3.03;;
20671;SDS011;10495;50.922;4.760;2023-03-31T00:17:36;12.47;;;2.83;;
20671;SDS011;10495;50.922;4.760;2023-03-31T00:20:02;7.87;;;2.63;;
20671;SDS011;10495;50.922;4.760;2023-03-31T00:22:29;11.53;;;3.43;;
20671;SDS011;10495;50.922;4.760;2023-03-31T00:24:55;6.87;;;2.40;;
20671;SDS011;10495;50.922;4.760;2023-03-31T00:27:21;11.80;;;2.93;;
20671;SDS011;10495;50.922;4.760;2023-03-31T00:29:46;10.33;;;2.63;;
20671;SDS011;10495;50.922;4.760;2023-03-31T00:32:14;15.10;;;3.17;;
20671;SDS011;10495;50.922;4.760;2023-03-31T00:34:40;12.23;;;3.07;;
20671;SDS011;10495;50.922;4.760;2023-03-31T00:37:06;10.17;;;2.63;;
20671;SDS011;10495;50.922;4.760;2023-03-31T00:39:33;12.27;;;3.30;;
20671;SDS011;10495;50.922;4.760;2023-03-31T00:42:04;7.83;;;2.40;;
20671;SDS011;10495;50.922;4.760;2023-03-31T00:44:30;9.77;;;2.50;;
20671;SDS011;10495;50.922;4.760;2023-03-31T00:47:02;12.40;;;2.80;;
20671;SDS011;10495;50.922;4.760;2023-03-31T00:49:39;9.60;;;3.07;;
20671;SDS011;10495;50.922;4.760;2023-03-31T00:52:13;14.77;;;3.17;;
20671;SDS011;10495;50.922;4.760;2023-03-31T00:54:48;8.13;;;2.60;;
20671;SDS011;10495;50.922;4.760;2023-03-31T00:57:20;9.87;;;3.10;;
20671;SDS011;10495;50.922;4.760;2023-03-31T00:59:51;17.83;;;3.80;;
20671;SDS011;10495;50.922;4.760;2023-03-31T01:02:21;12.23;;;3.10;;
20671;SDS011;10495;50.922;4.760;2023-03-31T01:04:50;9.00;;;2.83;;
20671;SDS011;10495;50.922;4.760;2023-03-31T01:07:21;11.53;;;2.67;;
20671;SDS011;10495;50.922;4.760;2023-03-31T01:09:56;11.97;;;2.93;;
20671;SDS011;10495;50.922;4.760;2023-03-31T01:12:24;9.20;;;2.27;;
20671;SDS011;10495;50.922;4.760;2023-03-31T01:14:50;12.90;;;3.07;;
20671;SDS011;10495;50.922;4.760;2023-03-31T01:17:17;11.30;;;2.47;;
20671;SDS011;10495;50.922;4.760;2023-03-31T01:22:44;9.37;;;2.83;;
20671;SDS011;10495;50.922;4.760;2023-03-31T01:35:53;10.00;;;3.03;;
20671;SDS011;10495;50.922;4.760;2023-03-31T01:44:01;8.07;;;2.67;;
20671;SDS011;10495;50.922;4.760;2023-03-31T01:46:35;11.97;;;3.30;;
20671;SDS011;10495;50.922;4.760;2023-03-31T01:49:15;11.20;;;2.80;;
20671;SDS011;10495;50.922;4.760;2023-03-31T01:54:47;11.30;;;3.23;;
20671;SDS011;10495;50.922;4.760;2023-03-31T01:57:22;9.07;;;2.50;;
20671;SDS011;10495;50.922;4.760;2023-03-31T01:59:55;10.83;;;3.00;;
20671;SDS011;10495;50.922;4.760;2023-03-31T02:02:46;11.60;;;2.90;;
20671;SDS011;10495;50.922;4.760;2023-03-31T02:05:32;9.30;;;2.40;;
20671;SDS011;10495;50.922;4.760;2023-03-31T02:08:13;8.00;;;2.37;;
20671;SDS011;10495;50.922;4.760;2023-03-31T02:10:53;6.40;;;2.17;;
20671;SDS011;10495;50.922;4.760;2023-03-31T02:13:20;8.30;;;2.57;;
20671;SDS011;10495;50.922;4.760;2023-03-31T02:15:51;9.03;;;2.20;;
20671;SDS011;10495;50.922;4.760;2023-03-31T02:18:22;8.60;;;2.07;;
20671;SDS011;10495;50.922;4.760;2023-03-31T02:20:51;10.43;;;1.90;;
20671;SDS011;10495;50.922;4.760;2023-03-31T02:23:20;9.40;;;2.00;;
20671;SDS011;10495;50.922;4.760;2023-03-31T02:25:51;5.70;;;1.67;;
20671;SDS011;10495;50.922;4.760;2023-03-31T02:28:22;6.40;;;1.97;;
20671;SDS011;10495;50.922;4.760;2023-03-31T02:30:52;7.77;;;1.77;;
20671;SDS011;10495;50.922;4.760;2023-03-31T02:33:20;9.27;;;2.47;;
20671;SDS011;10495;50.922;4.760;2023-03-31T02:35:45;5.60;;;1.93;;
20671;SDS011;10495;50.922;4.760;2023-03-31T02:38:11;7.27;;;1.37;;
20671;SDS011;10495;50.922;4.760;2023-03-31T02:40:37;6.00;;;1.47;;
20671;SDS011;10495;50.922;4.760;2023-03-31T02:43:02;5.73;;;1.60;;
20671;SDS011;10495;50.922;4.760;2023-03-31T02:45:44;4.83;;;1.50;;
20671;SDS011;10495;50.922;4.760;2023-03-31T02:50:52;5.33;;;1.47;;
20671;SDS011;10495;50.922;4.760;2023-03-31T03:02:17;3.80;;;1.37;;
20671;SDS011;10495;50.922;4.760;2023-03-31T03:07:45;5.47;;;1.70;;
20671;SDS011;10495;50.922;4.760;2023-03-31T03:10:27;3.57;;;1.23;;
20671;SDS011;10495;50.922;4.760;2023-03-31T03:15:43;3.97;;;1.57;;
20671;SDS011;10495;50.922;4.760;2023-03-31T03:18:12;6.77;;;2.20;;
20671;SDS011;10495;50.922;4.760;2023-03-31T03:20:38;3.60;;;1.50;;
20671;SDS011;10495;50.922;4.760;2023-03-31T03:23:06;6.73;;;1.30;;
20671;SDS011;10495;50.922;4.760;2023-03-31T03:25:32;3.93;;;1.40;;
20671;SDS011;10495;50.922;4.760;2023-03-31T03:27:59;6.90;;;1.47;;
20671;SDS011;10495;50.922;4.760;2023-03-31T03:30:25;7.13;;;2.37;;
20671;SDS011;10495;50.922;4.760;2023-03-31T03:32:50;3.97;;;1.43;;
20671;SDS011;10495;50.922;4.760;2023-03-31T03:35:16;5.57;;;1.57;;
20671;SDS011;10495;50.922;4.760;2023-03-31T03:37:42;7.13;;;1.60;;
20671;SDS011;10495;50.922;4.760;2023-03-31T03:40:07;7.33;;;1.70;;
20671;SDS011;10495;50.922;4.760;2023-03-31T03:42:34;6.83;;;1.67;;
20671;SDS011;10495;50.922;4.760;2023-03-31T03:45:00;5.57;;;1.30;;
20671;SDS011;10495;50.922;4.760;2023-03-31T03:47:26;4.80;;;1.37;;
20671;SDS011;10495;50.922;4.760;2023-03-31T03:49:52;4.10;;;2.07;;
20671;SDS011;10495;50.922;4.760;2023-03-31T03:52:18;5.23;;;1.50;;
20671;SDS011;10495;50.922;4.760;2023-03-31T03:54:44;5.97;;;1.43;;
20671;SDS011;10495;50.922;4.760;2023-03-31T03:57:10;5.37;;;1.53;;
20671;SDS011;10495;50.922;4.760;2023-03-31T03:59:36;5.50;;;1.63;;
20671;SDS011;10495;50.922;4.760;2023-03-31T04:02:01;5.50;;;1.87;;
20671;SDS011;10495;50.922;4.760;2023-03-31T04:04:27;5.37;;;1.43;;
20671;SDS011;10495;50.922;4.760;2023-03-31T04:06:53;4.23;;;1.33;;
20671;SDS011;10495;50.922;4.760;2023-03-31T04:09:18;7.10;;;1.77;;
20671;SDS011;10495;50.922;4.760;2023-03-31T04:11:44;7.70;;;1.70;;
20671;SDS011;10495;50.922;4.760;2023-03-31T04:14:10;4.80;;;2.00;;
20671;SDS011;10495;50.922;4.760;2023-03-31T04:16:35;7.57;;;1.83;;
20671;SDS011;10495;50.922;4.760;2023-03-31T04:19:02;11.13;;;2.83;;
20671;SDS011;10495;50.922;4.760;2023-03-31T04:21:29;10.33;;;2.50;;
20671;SDS011;10495;50.922;4.760;2023-03-31T04:23:58;9.67;;;2.20;;
20671;SDS011;10495;50.922;4.760;2023-03-31T04:26:29;7.67;;;2.27;;
20671;SDS011;10495;50.922;4.760;2023-03-31T04:29:06;13.07;;;1.77;;
20671;SDS011;10495;50.922;4.760;2023-03-31T04:31:34;5.83;;;1.60;;
20671;SDS011;10495;50.922;4.760;2023-03-31T04:34:02;7.53;;;1.60;;
20671;SDS011;10495;50.922;4.760;2023-03-31T04:36:30;7.93;;;1.80;;
20671;SDS011;10495;50.922;4.760;2023-03-31T04:38:57;3.13;;;1.50;;
20671;SDS011;10495;50.922;4.760;2023-03-31T04:41:23;2.40;;;1.30;;
20671;SDS011;10495;50.922;4.760;2023-03-31T04:43:51;4.60;;;1.40;;
20671;SDS011;10495;50.922;4.760;2023-03-31T04:46:17;5.60;;;1.63;;
20671;SDS011;10495;50.922;4.760;2023-03-31T04:48:43;5.93;;;1.80;;
20671;SDS011;10495;50.922;4.760;2023-03-31T04:51:09;2.60;;;1.37;;
20671;SDS011;10495;50.922;4.760;2023-03-31T04:53:35;6.23;;;1.90;;
20671;SDS011;10495;50.922;4.760;2023-03-31T04:56:01;5.03;;;1.70;;
20671;SDS011;10495;50.922;4.760;2023-03-31T04:58:27;7.47;;;1.80;;
20671;SDS011;10495;50.922;4.760;2023-03-31T05:00:53;4.13;;;1.67;;
20671;SDS011;10495;50.922;4.760;2023-03-31T05:03:19;5.93;;;1.87;;
20671;SDS011;10495;50.922;4.760;2023-03-31T05:05:45;5.23;;;1.83;;
20671;SDS011;10495;50.922;4.760;2023-03-31T05:08:11;8.53;;;2.00;;
20671;SDS011;10495;50.922;4.760;2023-03-31T05:10:36;3.50;;;1.73;;
20671;SDS011;10495;50.922;4.760;2023-03-31T05:13:02;7.00;;;1.90;;
20671;SDS011;10495;50.922;4.760;2023-03-31T05:15:28;8.70;;;2.03;;
20671;SDS011;10495;50.922;4.760;2023-03-31T05:17:53;11.47;;;2.33;;
20671;SDS011;10495;50.922;4.760;2023-03-31T05:20:19;5.53;;;2.10;;
20671;SDS011;10495;50.922;4.760;2023-03-31T05:22:45;11.87;;;2.20;;
20671;SDS011;10495;50.922;4.760;2023-03-31T05:25:12;6.17;;;2.30;;
20671;SDS011;10495;50.922;4.760;2023-03-31T05:27:43;7.40;;;2.30;;
20671;SDS011;10495;50.922;4.760;2023-03-31T05:30:11;7.43;;;2.10;;
20671;SDS011;10495;50.922;4.760;2023-03-31T05:32:37;12.33;;;2.70;;
20671;SDS011;10495;50.922;4.760;2023-03-31T05:35:03;4.83;;;2.10;;
20671;SDS011;10495;50.922;4.760;2023-03-31T05:37:29;6.13;;;2.43;;
20671;SDS011;10495;50.922;4.760;2023-03-31T05:39:55;7.87;;;2.47;;
20671;SDS011;10495;50.922;4.760;2023-03-31T05:42:21;8.47;;;2.33;;
20671;SDS011;10495;50.922;4.760;2023-03-31T05:44:47;8.43;;;1.97;;
20671;SDS011;10495;50.922;4.760;2023-03-31T05:47:13;10.90;;;2.23;;
20671;SDS011;10495;50.922;4.760;2023-03-31T05:49:39;7.57;;;2.30;;
20671;SDS011;10495;50.922;4.760;2023-03-31T05:52:05;5.03;;;2.03;;
20671;SDS011;10495;50.922;4.760;2023-03-31T05:54:32;8.40;;;2.80;;
20671;SDS011;10495;50.922;4.760;2023-03-31T05:56:57;9.20;;;2.23;;
20671;SDS011;10495;50.922;4.760;2023-03-31T05:59:23;9.60;;;2.97;;
20671;SDS011;10495;50.922;4.760;2023-03-31T06:01:49;11.87;;;2.93;;
20671;SDS011;10495;50.922;4.760;2023-03-31T06:04:15;6.50;;;2.10;;
20671;SDS011;10495;50.922;4.760;2023-03-31T06:06:40;8.10;;;2.60;;
20671;SDS011;10495;50.922;4.760;2023-03-31T06:09:08;4.60;;;2.67;;
20671;SDS011;10495;50.922;4.760;2023-03-31T06:11:36;13.40;;;2.57;;
20671;SDS011;10495;50.922;4.760;2023-03-31T06:14:02;6.77;;;3.00;;
20671;SDS011;10495;50.922;4.760;2023-03-31T06:16:29;8.80;;;2.90;;
20671;SDS011;10495;50.922;4.760;2023-03-31T06:18:54;8.20;;;2.37;;
20671;SDS011;10495;50.922;4.760;2023-03-31T06:21:20;9.63;;;2.23;;
20671;SDS011;10495;50.922;4.760;2023-03-31T06:23:46;8.80;;;2.73;;
20671;SDS011;10495;50.922;4.760;2023-03-31T06:26:13;7.77;;;2.60;;
20671;SDS011;10495;50.922;4.760;2023-03-31T06:28:41;13.13;;;3.00;;
20671;SDS011;10495;50.922;4.760;2023-03-31T06:31:09;10.47;;;2.70;;
20671;SDS011;10495;50.922;4.760;2023-03-31T06:33:36;8.43;;;2.60;;
20671;SDS011;10495;50.922;4.760;2023-03-31T06:36:03;3.53;;;2.00;;
20671;SDS011;10495;50.922;4.760;2023-03-31T06:38:30;7.77;;;2.30;;
20671;SDS011;10495;50.922;4.760;2023-03-31T06:40:57;10.17;;;2.83;;
20671;SDS011;10495;50.922;4.760;2023-03-31T06:43:23;9.70;;;2.53;;
20671;SDS011;10495;50.922;4.760;2023-03-31T06:45:49;10.87;;;2.87;;
20671;SDS011;10495;50.922;4.760;2023-03-31T06:48:17;11.00;;;2.70;;
20671;SDS011;10495;50.922;4.760;2023-03-31T06:50:43;11.33;;;2.80;;
20671;SDS011;10495;50.922;4.760;2023-03-31T06:53:08;8.73;;;2.93;;
20671;SDS011;10495;50.922;4.760;2023-03-31T06:55:34;12.93;;;3.43;;
20671;SDS011;10495;50.922;4.760;2023-03-31T06:58:00;9.70;;;2.50;;
20671;SDS011;10495;50.922;4.760;2023-03-31T07:00:26;13.00;;;3.10;;
20671;SDS011;10495;50.922;4.760;2023-03-31T07:02:52;14.83;;;2.87;;
20671;SDS011;10495;50.922;4.760;2023-03-31T07:05:18;9.40;;;2.67;;
20671;SDS011;10495;50.922;4.760;2023-03-31T07:07:50;9.23;;;2.80;;
20671;SDS011;10495;50.922;4.760;2023-03-31T07:10:17;7.93;;;2.60;;
20671;SDS011;10495;50.922;4.760;2023-03-31T07:12:42;7.27;;;2.50;;
20671;SDS011;10495;50.922;4.760;2023-03-31T07:15:08;9.13;;;2.57;;
20671;SDS011;10495;50.922;4.760;2023-03-31T07:17:34;9.00;;;2.67;;
20671;SDS011;10495;50.922;4.760;2023-03-31T07:20:01;11.03;;;3.10;;
20671;SDS011;10495;50.922;4.760;2023-03-31T07:22:28;13.60;;;3.23;;
20671;SDS011;10495;50.922;4.760;2023-03-31T07:24:54;17.30;;;3.57;;
20671;SDS011;10495;50.922;4.760;2023-03-31T07:27:20;8.73;;;3.27;;
20671;SDS011;10495;50.922;4.760;2023-03-31T07:29:46;10.87;;;2.70;;
20671;SDS011;10495;50.922;4.760;2023-03-31T07:32:13;12.03;;;3.07;;
20671;SDS011;10495;50.922;4.760;2023-03-31T07:34:39;11.10;;;2.37;;
20671;SDS011;10495;50.922;4.760;2023-03-31T07:37:05;14.47;;;3.73;;
20671;SDS011;10495;50.922;4.760;2023-03-31T07:39:31;9.23;;;2.80;;
20671;SDS011;10495;50.922;4.760;2023-03-31T07:41:57;15.03;;;2.63;;
20671;SDS011;10495;50.922;4.760;2023-03-31T07:44:22;11.77;;;3.47;;
20671;SDS011;10495;50.922;4.760;2023-03-31T07:46:48;15.73;;;3.27;;
20671;SDS011;10495;50.922;4.760;2023-03-31T07:49:13;9.70;;;3.37;;
20671;SDS011;10495;50.922;4.760;2023-03-31T07:51:40;10.00;;;2.73;;
20671;SDS011;10495;50.922;4.760;2023-03-31T07:54:06;8.30;;;3.27;;
20671;SDS011;10495;50.922;4.760;2023-03-31T07:56:31;9.33;;;2.47;;
20671;SDS011;10495;50.922;4.760;2023-03-31T07:58:57;9.97;;;3.23;;
20671;SDS011;10495;50.922;4.760;2023-03-31T08:01:23;12.70;;;2.57;;
20671;SDS011;10495;50.922;4.760;2023-03-31T08:03:50;17.50;;;4.20;;
20671;SDS011;10495;50.922;4.760;2023-03-31T08:06:20;9.47;;;2.47;;
20671;SDS011;10495;50.922;4.760;2023-03-31T08:08:48;9.77;;;3.43;;
20671;SDS011;10495;50.922;4.760;2023-03-31T08:11:14;13.63;;;3.30;;
20671;SDS011;10495;50.922;4.760;2023-03-31T08:13:41;9.90;;;3.27;;
20671;SDS011;10495;50.922;4.760;2023-03-31T08:16:06;11.83;;;3.07;;
20671;SDS011;10495;50.922;4.760;2023-03-31T08:18:32;11.00;;;3.17;;
20671;SDS011;10495;50.922;4.760;2023-03-31T08:20:58;14.73;;;3.37;;
20671;SDS011;10495;50.922;4.760;2023-03-31T08:23:23;14.73;;;3.67;;
20671;SDS011;10495;50.922;4.760;2023-03-31T08:25:49;12.10;;;3.83;;
20671;SDS011;10495;50.922;4.760;2023-03-31T08:28:15;11.63;;;3.00;;
20671;SDS011;10495;50.922;4.760;2023-03-31T08:30:41;8.70;;;2.97;;
20671;SDS011;10495;50.922;4.760;2023-03-31T08:33:07;13.93;;;3.17;;
20671;SDS011;10495;50.922;4.760;2023-03-31T08:35:33;11.60;;;2.90;;
20671;SDS011;10495;50.922;4.760;2023-03-31T08:38:00;13.97;;;4.03;;
20671;SDS011;10495;50.922;4.760;2023-03-31T08:40:27;13.00;;;2.87;;
20671;SDS011;10495;50.922;4.760;2023-03-31T08:42:55;16.60;;;3.90;;
20671;SDS011;10495;50.922;4.760;2023-03-31T08:45:30;10.77;;;3.20;;
20671;SDS011;10495;50.922;4.760;2023-03-31T08:48:03;8.70;;;3.30;;
20671;SDS011;10495;50.922;4.760;2023-03-31T08:50:31;9.63;;;2.80;;
20671;SDS011;10495;50.922;4.760;2023-03-31T08:55:46;12.93;;;3.07;;
20671;SDS011;10495;50.922;4.760;2023-03-31T08:58:25;5.77;;;1.97;;
20671;SDS011;10495;50.922;4.760;2023-03-31T09:06:37;13.23;;;2.27;;
20671;SDS011;10495;50.922;4.760;2023-03-31T09:15:11;8.03;;;2.23;;
20671;SDS011;10495;50.922;4.760;2023-03-31T09:17:54;7.57;;;2.37;;
20671;SDS011;10495;50.922;4.760;2023-03-31T09:20:30;10.37;;;2.60;;
20671;SDS011;10495;50.922;4.760;2023-03-31T09:23:06;8.90;;;2.23;;
20671;SDS011;10495;50.922;4.760;2023-03-31T09:25:53;16.57;;;2.43;;
20671;SDS011;10495;50.922;4.760;2023-03-31T09:28:25;12.93;;;2.50;;
20671;SDS011;10495;50.922;4.760;2023-03-31T09:31:03;10.03;;;2.40;;
20671;SDS011;10495;50.922;4.760;2023-03-31T09:33:37;13.60;;;2.80;;
20671;SDS011;10495;50.922;4.760;2023-03-31T09:36:07;9.57;;;2.40;;
20671;SDS011;10495;50.922;4.760;2023-03-31T09:38:43;9.53;;;2.33;;
20671;SDS011;10495;50.922;4.760;2023-03-31T09:41:10;16.37;;;3.17;;
20671;SDS011;10495;50.922;4.760;2023-03-31T09:43:38;12.40;;;2.87;;
20671;SDS011;10495;50.922;4.760;2023-03-31T09:46:15;10.37;;;2.80;;
20671;SDS011;10495;50.922;4.760;2023-03-31T09:49:15;10.57;;;3.37;;
20671;SDS011;10495;50.922;4.760;2023-03-31T09:51:44;7.60;;;2.37;;
20671;SDS011;10495;50.922;4.760;2023-03-31T09:54:47;8.13;;;2.63;;
20671;SDS011;10495;50.922;4.760;2023-03-31T09:57:14;13.57;;;3.37;;
20671;SDS011;10495;50.922;4.760;2023-03-31T10:07:50;13.90;;;3.33;;
20671;SDS011;10495;50.922;4.760;2023-03-31T10:10:22;15.87;;;3.63;;
20671;SDS011;10495;50.922;4.760;2023-03-31T10:12:55;15.37;;;3.03;;
20671;SDS011;10495;50.922;4.760;2023-03-31T10:15:30;13.57;;;3.53;;
20671;SDS011;10495;50.922;4.760;2023-03-31T10:18:00;19.93;;;4.17;;
20671;SDS011;10495;50.922;4.760;2023-03-31T10:20:32;12.30;;;2.83;;
20671;SDS011;10495;50.922;4.760;2023-03-31T10:23:03;11.70;;;2.70;;
20671;SDS011;10495;50.922;4.760;2023-03-31T10:25:41;14.93;;;3.00;;
20671;SDS011;10495;50.922;4.760;2023-03-31T10:28:09;12.97;;;4.13;;
20671;SDS011;10495;50.922;4.760;2023-03-31T10:30:40;11.53;;;2.97;;
20671;SDS011;10495;50.922;4.760;2023-03-31T10:33:17;10.90;;;2.40;;
20671;SDS011;10495;50.922;4.760;2023-03-31T10:35:49;13.20;;;3.30;;
20671;SDS011;10495;50.922;4.760;2023-03-31T10:38:26;12.93;;;3.17;;
20671;SDS011;10495;50.922;4.760;2023-03-31T10:40:56;11.87;;;3.23;;
20671;SDS011;10495;50.922;4.760;2023-03-31T10:43:27;11.30;;;2.93;;
20671;SDS011;10495;50.922;4.760;2023-03-31T10:46:04;13.80;;;2.67;;
20671;SDS011;10495;50.922;4.760;2023-03-31T10:48:31;9.87;;;2.63;;
20671;SDS011;10495;50.922;4.760;2023-03-31T10:53:48;20.43;;;3.00;;
20671;SDS011;10495;50.922;4.760;2023-03-31T11:01:46;9.17;;;2.27;;
20671;SDS011;10495;50.922;4.760;2023-03-31T11:13:05;13.80;;;3.20;;
20671;SDS011;10495;50.922;4.760;2023-03-31T11:15:50;10.37;;;3.10;;
20671;SDS011;10495;50.922;4.760;2023-03-31T11:18:31;13.53;;;3.00;;
20671;SDS011;10495;50.922;4.760;2023-03-31T11:29:49;8.73;;;2.90;;
20671;SDS011;10495;50.922;4.760;2023-03-31T11:46:07;10.67;;;2.60;;
20671;SDS011;10495;50.922;4.760;2023-03-31T11:51:06;8.63;;;2.40;;
20671;SDS011;10495;50.922;4.760;2023-03-31T11:53:38;12.53;;;2.53;;
20671;SDS011;10495;50.922;4.760;2023-03-31T11:56:06;8.57;;;2.20;;
20671;SDS011;10495;50.922;4.760;2023-03-31T11:58:36;8.13;;;2.47;;
20671;SDS011;10495;50.922;4.760;2023-03-31T12:03:59;6.70;;;2.07;;
20671;SDS011;10495;50.922;4.760;2023-03-31T12:06:29;9.27;;;1.90;;
20671;SDS011;10495;50.922;4.760;2023-03-31T12:16:50;12.93;;;2.57;;
20671;SDS011;10495;50.922;4.760;2023-03-31T12:19:26;8.00;;;2.07;;
20671;SDS011;10495;50.922;4.760;2023-03-31T12:24:36;8.30;;;1.97;;
20671;SDS011;10495;50.922;4.760;2023-03-31T12:29:47;11.60;;;2.43;;
20671;SDS011;10495;50.922;4.760;2023-03-31T12:32:20;9.87;;;2.00;;
20671;SDS011;10495;50.922;4.760;2023-03-31T12:34:54;7.20;;;2.30;;
20671;SDS011;10495;50.922;4.760;2023-03-31T12:59:30;5.43;;;1.97;;
20671;SDS011;10495;50.922;4.760;2023-03-31T13:04:36;5.10;;;1.70;;
20671;SDS011;10495;50.922;4.760;2023-03-31T13:07:02;7.00;;;2.30;;
20671;SDS011;10495;50.922;4.760;2023-03-31T13:12:27;5.87;;;2.00;;
20671;SDS011;10495;50.922;4.760;2023-03-31T13:14:54;6.07;;;1.40;;
20671;SDS011;10495;50.922;4.760;2023-03-31T13:20:41;4.77;;;1.90;;
20671;SDS011;10495;50.922;4.760;2023-03-31T13:27:54;5.90;;;1.50;;
20671;SDS011;10495;50.922;4.760;2023-03-31T14:04:12;5.43;;;1.30;;
20671;SDS011;10495;50.922;4.760;2023-03-31T14:09:39;4.83;;;1.17;;
20671;SDS011;10495;50.922;4.760;2023-03-31T14:14:55;4.10;;;1.10;;
20671;SDS011;10495;50.922;4.760;2023-03-31T14:17:32;3.43;;;1.10;;
20671;SDS011;10495;50.922;4.760;2023-03-31T14:25:52;3.40;;;1.40;;
20671;SDS011;10495;50.922;4.760;2023-03-31T14:31:34;4.33;;;0.97;;
20671;SDS011;10495;50.922;4.760;2023-03-31T14:36:57;3.23;;;0.77;;
20671;SDS011;10495;50.922;4.760;2023-03-31T14:39:34;3.83;;;1.00;;
20671;SDS011;10495;50.922;4.760;2023-03-31T14:42:09;1.33;;;0.70;;
20671;SDS011;10495;50.922;4.760;2023-03-31T14:44:43;1.37;;;0.80;;
20671;SDS011;10495;50.922;4.760;2023-03-31T14:47:15;1.47;;;0.83;;
20671;SDS011;10495;50.922;4.760;2023-03-31T14:49:45;2.93;;;0.80;;
20671;SDS011;10495;50.922;4.760;2023-03-31T14:52:12;2.00;;;0.67;;
20671;SDS011;10495;50.922;4.760;2023-03-31T14:54:44;0.50;;;0.50;;
20671;SDS011;10495;50.922;4.760;2023-03-31T14:57:12;1.20;;;0.57;;
20671;SDS011;10495;50.922;4.760;2023-03-31T14:59:44;0.70;;;0.70;;
20671;SDS011;10495;50.922;4.760;2023-03-31T15:02:16;0.43;;;0.43;;
20671;SDS011;10495;50.922;4.760;2023-03-31T15:04:46;1.17;;;0.40;;
20671;SDS011;10495;50.922;4.760;2023-03-31T15:07:13;1.13;;;0.60;;
20671;SDS011;10495;50.922;4.760;2023-03-31T15:09:41;1.53;;;0.63;;
20671;SDS011;10495;50.922;4.760;2023-03-31T15:12:13;2.47;;;0.53;;
20671;SDS011;10495;50.922;4.760;2023-03-31T15:14:45;1.37;;;0.67;;
20671;SDS011;10495;50.922;4.760;2023-03-31T15:19:57;3.53;;;0.70;;
20671;SDS011;10495;50.922;4.760;2023-03-31T15:22:25;1.97;;;0.53;;
20671;SDS011;10495;50.922;4.760;2023-03-31T15:24:53;1.43;;;0.60;;
20671;SDS011;10495;50.922;4.760;2023-03-31T15:29:54;0.83;;;0.63;;
20671;SDS011;10495;50.922;4.760;2023-03-31T15:32:24;1.30;;;0.60;;
20671;SDS011;10495;50.922;4.760;2023-03-31T15:34:54;1.33;;;0.50;;
20671;SDS011;10495;50.922;4.760;2023-03-31T15:37:23;1.93;;;0.63;;
20671;SDS011;10495;50.922;4.760;2023-03-31T15:39:53;4.13;;;0.80;;
20671;SDS011;10495;50.922;4.760;2023-03-31T15:42:20;6.23;;;0.70;;
20671;SDS011;10495;50.922;4.760;2023-03-31T15:44:46;2.83;;;0.73;;
20671;SDS011;10495;50.922;4.760;2023-03-31T15:47:19;2.60;;;0.83;;
20671;SDS011;10495;50.922;4.760;2023-03-31T15:49:53;1.43;;;0.60;;
20671;SDS011;10495;50.922;4.760;2023-03-31T15:52:29;3.17;;;0.93;;
20671;SDS011;10495;50.922;4.760;2023-03-31T15:54:58;1.33;;;0.80;;
20671;SDS011;10495;50.922;4.760;2023-03-31T15:57:29;1.07;;;0.67;;
20671;SDS011;10495;50.922;4.760;2023-03-31T15:59:57;3.03;;;0.77;;
20671;SDS011;10495;50.922;4.760;2023-03-31T16:02:25;1.33;;;0.70;;
20671;SDS011;10495;50.922;4.760;2023-03-31T16:05:01;4.33;;;0.83;;
20671;SDS011;10495;50.922;4.760;2023-03-31T16:07:29;2.77;;;0.83;;
20671;SDS011;10495;50.922;4.760;2023-03-31T16:10:08;2.17;;;0.80;;
20671;SDS011;10495;50.922;4.760;2023-03-31T16:12:48;2.47;;;0.97;;
20671;SDS011;10495;50.922;4.760;2023-03-31T16:15:19;3.20;;;0.90;;
20671;SDS011;10495;50.922;4.760;2023-03-31T16:17:49;1.80;;;0.60;;
20671;SDS011;10495;50.922;4.760;2023-03-31T16:20:31;2.47;;;0.83;;
20671;SDS011;10495;50.922;4.760;2023-03-31T16:23:17;4.37;;;1.30;;
20671;SDS011;10495;50.922;4.760;2023-03-31T16:25:45;3.87;;;1.33;;
20671;SDS011;10495;50.922;4.760;2023-03-31T16:28:15;3.43;;;1.27;;
20671;SDS011;10495;50.922;4.760;2023-03-31T16:30:44;5.53;;;1.37;;
20671;SDS011;10495;50.922;4.760;2023-03-31T16:33:11;2.33;;;0.90;;
20671;SDS011;10495;50.922;4.760;2023-03-31T16:35:40;3.60;;;1.20;;
20671;SDS011;10495;50.922;4.760;2023-03-31T16:38:08;3.87;;;1.40;;
20671;SDS011;10495;50.922;4.760;2023-03-31T16:40:36;6.47;;;1.60;;
20671;SDS011;10495;50.922;4.760;2023-03-31T16:43:08;3.33;;;1.30;;
20671;SDS011;10495;50.922;4.760;2023-03-31T16:45:35;7.07;;;1.80;;
20671;SDS011;10495;50.922;4.760;2023-03-31T16:48:01;4.37;;;1.27;;
20671;SDS011;10495;50.922;4.760;2023-03-31T16:50:27;4.07;;;1.60;;
20671;SDS011;10495;50.922;4.760;2023-03-31T16:52:53;6.97;;;1.50;;
20671;SDS011;10495;50.922;4.760;2023-03-31T16:55:19;3.63;;;1.20;;
20671;SDS011;10495;50.922;4.760;2023-03-31T16:57:44;4.80;;;1.63;;
20671;SDS011;10495;50.922;4.760;2023-03-31T17:00:10;2.33;;;1.13;;
20671;SDS011;10495;50.922;4.760;2023-03-31T17:02:36;3.47;;;1.30;;
20671;SDS011;10495;50.922;4.760;2023-03-31T17:05:02;1.23;;;0.80;;
20671;SDS011;10495;50.922;4.760;2023-03-31T17:07:28;1.73;;;1.13;;
20671;SDS011;10495;50.922;4.760;2023-03-31T17:09:54;2.97;;;1.20;;
20671;SDS011;10495;50.922;4.760;2023-03-31T17:12:20;3.40;;;1.57;;
20671;SDS011;10495;50.922;4.760;2023-03-31T17:14:45;4.87;;;1.30;;
20671;SDS011;10495;50.922;4.760;2023-03-31T17:17:11;7.57;;;1.10;;
20671;SDS011;10495;50.922;4.760;2023-03-31T17:19:36;4.77;;;1.30;;
20671;SDS011;10495;50.922;4.760;2023-03-31T17:22:02;4.93;;;1.00;;
20671;SDS011;10495;50.922;4.760;2023-03-31T17:24:28;4.73;;;1.37;;
20671;SDS011;10495;50.922;4.760;2023-03-31T17:26:53;4.60;;;1.00;;
20671;SDS011;10495;50.922;4.760;2023-03-31T17:29:19;1.53;;;0.90;;
20671;SDS011;10495;50.922;4.760;2023-03-31T17:31:45;3.27;;;1.20;;
20671;SDS011;10495;50.922;4.760;2023-03-31T17:34:10;6.87;;;1.70;;
20671;SDS011;10495;50.922;4.760;2023-03-31T17:36:36;2.90;;;0.97;;
20671;SDS011;10495;50.922;4.760;2023-03-31T17:39:03;3.97;;;1.23;;
20671;SDS011;10495;50.922;4.760;2023-03-31T17:41:29;2.13;;;1.00;;
20671;SDS011;10495;50.922;4.760;2023-03-31T17:43:56;2.70;;;0.90;;
20671;SDS011;10495;50.922;4.760;2023-03-31T17:46:22;4.87;;;1.03;;
20671;SDS011;10495;50.922;4.760;2023-03-31T17:48:48;4.37;;;1.30;;
20671;SDS011;10495;50.922;4.760;2023-03-31T17:51:16;3.57;;;1.10;;
20671;SDS011;10495;50.922;4.760;2023-03-31T17:53:43;4.80;;;1.67;;
20671;SDS011;10495;50.922;4.760;2023-03-31T17:56:10;5.27;;;1.80;;
20671;SDS011;10495;50.922;4.760;2023-03-31T17:58:36;2.30;;;1.17;;
20671;SDS011;10495;50.922;4.760;2023-03-31T18:01:03;4.13;;;1.60;;
20671;SDS011;10495;50.922;4.760;2023-03-31T18:03:30;4.67;;;1.43;;
20671;SDS011;10495;50.922;4.760;2023-03-31T18:05:56;5.93;;;1.57;;
20671;SDS011;10495;50.922;4.760;2023-03-31T18:08:28;6.27;;;1.73;;
20671;SDS011;10495;50.922;4.760;2023-03-31T18:10:54;7.27;;;2.33;;
20671;SDS011;10495;50.922;4.760;2023-03-31T18:13:19;5.10;;;2.00;;
20671;SDS011;10495;50.922;4.760;2023-03-31T18:15:49;4.03;;;1.90;;
20671;SDS011;10495;50.922;4.760;2023-03-31T18:18:16;8.17;;;2.40;;
20671;SDS011;10495;50.922;4.760;2023-03-31T18:20:43;4.97;;;1.97;;
20671;SDS011;10495;50.922;4.760;2023-03-31T18:23:09;3.77;;;1.70;;
20671;SDS011;10495;50.922;4.760;2023-03-31T18:25:37;6.20;;;1.67;;